sensor_id;sensor_type;location;lat;lon;timestamp;pressure;altitude;pressure_sealevel;temperature;humidity
61394;BME280;48555;50.952;-0.120;2023-08-07T00:02:22;101503.94;;;15.80;71.47
61394;BME280;48555;50.952;-0.120;2023-08-07T00:04:47;101490.03;;;15.78;71.63
61394;BME280;48555;50.952;-0.120;2023-08-07T00:07:12;101498.94;;;15.77;71.73
61394;BME280;48555;50.952;-0.120;2023-08-07T00:09:38;101493.75;;;15.75;71.70
61394;BME280;48555;50.952;-0.120;2023-08-07T00:12:03;101495.00;;;15.71;71.75
61394;BME280;48555;50.952;-0.120;2023-08-07T00:14:29;101498.31;;;15.73;71.73
61394;BME280;48555;50.952;-0.120;2023-08-07T00:16:54;101495.00;;;15.71;71.63
61394;BME280;48555;50.952;-0.120;2023-08-07T00:19:19;101489.56;;;15.73;71.92
61394;BME280;48555;50.952;-0.120;2023-08-07T00:21:45;101489.72;;;15.71;71.91
61394;BME280;48555;50.952;-0.120;2023-08-07T00:24:10;101492.59;;;15.68;72.11
61394;BME280;48555;50.952;-0.120;2023-08-07T00:26:35;101490.19;;;15.65;72.32
61394;BME280;48555;50.952;-0.120;2023-08-07T00:29:01;101491.97;;;15.64;72.05
61394;BME280;48555;50.952;-0.120;2023-08-07T00:31:26;101488.88;;;15.59;72.01
61394;BME280;48555;50.952;-0.120;2023-08-07T00:33:56;101496.91;;;15.58;72.24
61394;BME280;48555;50.952;-0.120;2023-08-07T00:36:21;101493.53;;;15.56;72.27
61394;BME280;48555;50.952;-0.120;2023-08-07T00:38:46;101492.72;;;15.55;72.18
61394;BME280;48555;50.952;-0.120;2023-08-07T00:41:12;101485.63;;;15.56;72.20
61394;BME280;48555;50.952;-0.120;2023-08-07T00:43:37;101492.84;;;15.54;72.03
61394;BME280;48555;50.952;-0.120;2023-08-07T00:46:02;101486.84;;;15.52;72.27
61394;BME280;48555;50.952;-0.120;2023-08-07T00:48:28;101491.28;;;15.51;72.35
61394;BME280;48555;50.952;-0.120;2023-08-07T00:50:55;101491.53;;;15.48;72.27
61394;BME280;48555;50.952;-0.120;2023-08-07T00:53:20;101489.72;;;15.49;72.46
61394;BME280;48555;50.952;-0.120;2023-08-07T00:55:46;101482.44;;;15.41;72.47
61394;BME280;48555;50.952;-0.120;2023-08-07T00:58:12;101485.94;;;15.41;72.65
61394;BME280;48555;50.952;-0.120;2023-08-07T01:00:37;101475.63;;;15.38;72.69
61394;BME280;48555;50.952;-0.120;2023-08-07T01:03:05;101483.28;;;15.41;72.55
61394;BME280;48555;50.952;-0.120;2023-08-07T01:05:31;101480.03;;;15.38;72.71
61394;BME280;48555;50.952;-0.120;2023-08-07T01:07:57;101482.09;;;15.34;72.39
61394;BME280;48555;50.952;-0.120;2023-08-07T01:11:22;101484.88;;;15.33;72.77
61394;BME280;48555;50.952;-0.120;2023-08-07T01:13:29;101492.88;;;15.31;72.68
61394;BME280;48555;50.952;-0.120;2023-08-07T01:16:01;101487.13;;;15.26;72.72
61394;BME280;48555;50.952;-0.120;2023-08-07T01:18:29;101487.84;;;15.28;72.64
61394;BME280;48555;50.952;-0.120;2023-08-07T01:20:56;101488.81;;;15.27;72.86
61394;BME280;48555;50.952;-0.120;2023-08-07T01:23:21;101490.50;;;15.28;72.89
61394;BME280;48555;50.952;-0.120;2023-08-07T01:25:47;101494.09;;;15.27;72.95
61394;BME280;48555;50.952;-0.120;2023-08-07T01:28:26;101481.41;;;15.21;72.94
61394;BME280;48555;50.952;-0.120;2023-08-07T01:30:55;101484.75;;;15.23;72.95
61394;BME280;48555;50.952;-0.120;2023-08-07T01:33:32;101488.47;;;15.20;73.13
61394;BME280;48555;50.952;-0.120;2023-08-07T01:36:02;101480.09;;;15.15;73.14
61394;BME280;48555;50.952;-0.120;2023-08-07T01:38:32;101485.97;;;15.19;73.34
61394;BME280;48555;50.952;-0.120;2023-08-07T01:40:57;101485.22;;;15.17;73.33
61394;BME280;48555;50.952;-0.120;2023-08-07T01:43:23;101475.31;;;15.09;73.27
61394;BME280;48555;50.952;-0.120;2023-08-07T01:45:49;101482.16;;;15.12;73.49
61394;BME280;48555;50.952;-0.120;2023-08-07T01:48:14;101477.00;;;15.10;73.38
61394;BME280;48555;50.952;-0.120;2023-08-07T01:50:40;101482.25;;;15.10;73.38
61394;BME280;48555;50.952;-0.120;2023-08-07T01:53:05;101475.91;;;15.13;73.46
61394;BME280;48555;50.952;-0.120;2023-08-07T01:55:31;101477.72;;;15.12;73.47
61394;BME280;48555;50.952;-0.120;2023-08-07T01:57:57;101477.56;;;15.14;73.27
61394;BME280;48555;50.952;-0.120;2023-08-07T02:00:22;101468.00;;;15.13;73.22
61394;BME280;48555;50.952;-0.120;2023-08-07T02:02:48;101467.75;;;15.16;73.45
61394;BME280;48555;50.952;-0.120;2023-08-07T02:05:14;101477.56;;;15.14;73.23
61394;BME280;48555;50.952;-0.120;2023-08-07T02:07:40;101465.88;;;15.07;73.18
61394;BME280;48555;50.952;-0.120;2023-08-07T02:10:05;101479.50;;;15.12;73.33
61394;BME280;48555;50.952;-0.120;2023-08-07T02:12:31;101479.38;;;15.13;73.27
61394;BME280;48555;50.952;-0.120;2023-08-07T02:14:58;101476.00;;;15.11;73.40
61394;BME280;48555;50.952;-0.120;2023-08-07T02:17:24;101467.78;;;15.05;73.64
61394;BME280;48555;50.952;-0.120;2023-08-07T02:19:50;101472.94;;;15.06;73.77
61394;BME280;48555;50.952;-0.120;2023-08-07T02:22:15;101481.53;;;15.08;73.59
61394;BME280;48555;50.952;-0.120;2023-08-07T02:24:41;101480.69;;;15.08;73.53
61394;BME280;48555;50.952;-0.120;2023-08-07T02:27:06;101482.75;;;15.04;74.00
61394;BME280;48555;50.952;-0.120;2023-08-07T02:29:31;101478.53;;;15.02;73.84
61394;BME280;48555;50.952;-0.120;2023-08-07T02:31:59;101489.09;;;15.02;73.98
61394;BME280;48555;50.952;-0.120;2023-08-07T02:34:25;101486.34;;;15.03;74.19
61394;BME280;48555;50.952;-0.120;2023-08-07T02:36:50;101476.16;;;14.98;73.95
61394;BME280;48555;50.952;-0.120;2023-08-07T02:39:16;101485.84;;;14.98;73.86
61394;BME280;48555;50.952;-0.120;2023-08-07T02:41:41;101478.91;;;14.97;74.27
61394;BME280;48555;50.952;-0.120;2023-08-07T02:44:07;101480.84;;;14.95;74.09
61394;BME280;48555;50.952;-0.120;2023-08-07T02:46:32;101470.06;;;14.87;74.03
61394;BME280;48555;50.952;-0.120;2023-08-07T02:48:59;101475.09;;;14.90;74.27
61394;BME280;48555;50.952;-0.120;2023-08-07T02:51:25;101472.59;;;14.88;74.48
61394;BME280;48555;50.952;-0.120;2023-08-07T02:53:50;101471.72;;;14.88;74.45
61394;BME280;48555;50.952;-0.120;2023-08-07T02:56:15;101469.47;;;14.83;74.52
61394;BME280;48555;50.952;-0.120;2023-08-07T02:58:40;101478.31;;;14.82;74.68
61394;BME280;48555;50.952;-0.120;2023-08-07T03:01:06;101468.97;;;14.78;74.87
61394;BME280;48555;50.952;-0.120;2023-08-07T03:03:32;101472.59;;;14.77;74.70
61394;BME280;48555;50.952;-0.120;2023-08-07T03:05:57;101471.13;;;14.73;74.51
61394;BME280;48555;50.952;-0.120;2023-08-07T03:08:23;101471.97;;;14.73;74.76
61394;BME280;48555;50.952;-0.120;2023-08-07T03:10:53;101475.44;;;14.74;74.48
61394;BME280;48555;50.952;-0.120;2023-08-07T03:13:18;101474.81;;;14.70;74.44
61394;BME280;48555;50.952;-0.120;2023-08-07T03:15:44;101477.47;;;14.70;74.72
61394;BME280;48555;50.952;-0.120;2023-08-07T03:18:09;101467.78;;;14.60;74.98
61394;BME280;48555;50.952;-0.120;2023-08-07T03:20:37;101472.91;;;14.61;75.10
61394;BME280;48555;50.952;-0.120;2023-08-07T03:23:03;101483.69;;;14.58;75.46
61394;BME280;48555;50.952;-0.120;2023-08-07T03:25:28;101483.69;;;14.58;75.36
61394;BME280;48555;50.952;-0.120;2023-08-07T03:27:53;101484.50;;;14.59;75.37
61394;BME280;48555;50.952;-0.120;2023-08-07T03:30:19;101462.69;;;14.45;75.28
61394;BME280;48555;50.952;-0.120;2023-08-07T03:32:44;101485.72;;;14.54;75.35
61394;BME280;48555;50.952;-0.120;2023-08-07T03:35:09;101467.22;;;14.43;75.78
61394;BME280;48555;50.952;-0.120;2023-08-07T03:37:35;101486.38;;;14.45;75.69
61394;BME280;48555;50.952;-0.120;2023-08-07T03:40:00;101486.63;;;14.42;76.02
61394;BME280;48555;50.952;-0.120;2023-08-07T03:42:25;101484.47;;;14.36;75.92
61394;BME280;48555;50.952;-0.120;2023-08-07T03:44:51;101497.00;;;14.32;76.18
61394;BME280;48555;50.952;-0.120;2023-08-07T03:47:16;101495.53;;;14.28;76.22
61394;BME280;48555;50.952;-0.120;2023-08-07T03:49:41;101484.19;;;14.28;76.08
61394;BME280;48555;50.952;-0.120;2023-08-07T03:52:07;101493.66;;;14.30;76.09
61394;BME280;48555;50.952;-0.120;2023-08-07T03:54:32;101467.44;;;14.18;76.13
61394;BME280;48555;50.952;-0.120;2023-08-07T03:56:57;101490.19;;;14.30;75.99
61394;BME280;48555;50.952;-0.120;2023-08-07T03:59:23;101486.22;;;14.24;76.07
61394;BME280;48555;50.952;-0.120;2023-08-07T04:01:48;101486.00;;;14.27;76.04
61394;BME280;48555;50.952;-0.120;2023-08-07T04:04:13;101490.41;;;14.27;76.04
61394;BME280;48555;50.952;-0.120;2023-08-07T04:06:39;101496.63;;;14.26;76.12
61394;BME280;48555;50.952;-0.120;2023-08-07T04:09:04;101493.28;;;14.24;76.10
61394;BME280;48555;50.952;-0.120;2023-08-07T04:11:30;101496.13;;;14.21;76.45
61394;BME280;48555;50.952;-0.120;2023-08-07T04:13:55;101490.25;;;14.17;76.45
61394;BME280;48555;50.952;-0.120;2023-08-07T04:16:20;101490.97;;;14.19;76.44
61394;BME280;48555;50.952;-0.120;2023-08-07T04:18:46;101489.41;;;14.17;76.27
61394;BME280;48555;50.952;-0.120;2023-08-07T04:21:12;101483.66;;;14.12;76.35
61394;BME280;48555;50.952;-0.120;2023-08-07T04:23:37;101487.25;;;14.11;76.63
61394;BME280;48555;50.952;-0.120;2023-08-07T04:26:03;101487.00;;;14.14;76.63
61394;BME280;48555;50.952;-0.120;2023-08-07T04:28:28;101494.41;;;14.08;76.49
61394;BME280;48555;50.952;-0.120;2023-08-07T04:30:54;101498.72;;;14.09;76.72
61394;BME280;48555;50.952;-0.120;2023-08-07T04:33:20;101496.31;;;14.06;76.70
61394;BME280;48555;50.952;-0.120;2023-08-07T04:35:45;101492.22;;;14.02;76.52
61394;BME280;48555;50.952;-0.120;2023-08-07T04:38:12;101497.16;;;14.07;76.79
61394;BME280;48555;50.952;-0.120;2023-08-07T04:40:43;101493.69;;;14.06;76.40
61394;BME280;48555;50.952;-0.120;2023-08-07T04:43:09;101486.13;;;14.02;76.78
61394;BME280;48555;50.952;-0.120;2023-08-07T04:45:34;101494.75;;;14.04;76.41
61394;BME280;48555;50.952;-0.120;2023-08-07T04:47:59;101505.06;;;14.07;76.78
61394;BME280;48555;50.952;-0.120;2023-08-07T04:50:25;101501.34;;;14.09;76.78
61394;BME280;48555;50.952;-0.120;2023-08-07T04:52:50;101506.38;;;14.13;76.65
61394;BME280;48555;50.952;-0.120;2023-08-07T04:55:16;101513.34;;;14.25;76.56
61394;BME280;48555;50.952;-0.120;2023-08-07T04:57:41;101516.66;;;14.51;76.34
61394;BME280;48555;50.952;-0.120;2023-08-07T05:00:07;101515.63;;;14.76;76.29
61394;BME280;48555;50.952;-0.120;2023-08-07T05:02:33;101519.84;;;15.01;76.23
61394;BME280;48555;50.952;-0.120;2023-08-07T05:04:58;101511.00;;;15.13;75.88
61394;BME280;48555;50.952;-0.120;2023-08-07T05:07:23;101516.84;;;15.17;75.91
61394;BME280;48555;50.952;-0.120;2023-08-07T05:09:49;101511.81;;;15.14;75.96
61394;BME280;48555;50.952;-0.120;2023-08-07T05:12:16;101516.25;;;15.13;75.86
61394;BME280;48555;50.952;-0.120;2023-08-07T05:14:41;101518.06;;;15.13;76.14
61394;BME280;48555;50.952;-0.120;2023-08-07T05:17:06;101517.34;;;15.11;76.02
61394;BME280;48555;50.952;-0.120;2023-08-07T05:19:31;101512.31;;;15.08;75.92
61394;BME280;48555;50.952;-0.120;2023-08-07T05:21:57;101507.28;;;15.05;76.01
61394;BME280;48555;50.952;-0.120;2023-08-07T05:24:22;101500.81;;;14.97;76.10
61394;BME280;48555;50.952;-0.120;2023-08-07T05:26:47;101509.19;;;15.03;76.11
61394;BME280;48555;50.952;-0.120;2023-08-07T05:29:13;101508.25;;;15.15;76.35
61394;BME280;48555;50.952;-0.120;2023-08-07T05:31:38;101501.75;;;15.30;76.04
61394;BME280;48555;50.952;-0.120;2023-08-07T05:34:03;101507.56;;;15.67;75.93
61394;BME280;48555;50.952;-0.120;2023-08-07T05:36:29;101510.19;;;16.00;75.18
61394;BME280;48555;50.952;-0.120;2023-08-07T05:38:56;101510.50;;;16.39;74.61
61394;BME280;48555;50.952;-0.120;2023-08-07T05:41:22;101519.69;;;16.86;73.65
61394;BME280;48555;50.952;-0.120;2023-08-07T05:43:47;101518.75;;;17.37;72.50
61394;BME280;48555;50.952;-0.120;2023-08-07T05:46:12;101517.50;;;17.91;70.98
61394;BME280;48555;50.952;-0.120;2023-08-07T05:48:38;101519.41;;;18.38;69.83
61394;BME280;48555;50.952;-0.120;2023-08-07T05:51:03;101514.72;;;18.79;68.73
61394;BME280;48555;50.952;-0.120;2023-08-07T05:53:29;101522.78;;;19.24;67.18
61394;BME280;48555;50.952;-0.120;2023-08-07T05:55:55;101532.63;;;19.60;66.14
61394;BME280;48555;50.952;-0.120;2023-08-07T05:58:20;101527.28;;;19.87;64.48
61394;BME280;48555;50.952;-0.120;2023-08-07T06:00:45;101537.38;;;20.19;63.20
61394;BME280;48555;50.952;-0.120;2023-08-07T06:03:11;101532.78;;;20.48;61.87
61394;BME280;48555;50.952;-0.120;2023-08-07T06:05:36;101533.78;;;20.73;61.24
61394;BME280;48555;50.952;-0.120;2023-08-07T06:08:02;101511.47;;;20.92;60.17
61394;BME280;48555;50.952;-0.120;2023-08-07T06:10:27;101526.38;;;21.19;59.04
61394;BME280;48555;50.952;-0.120;2023-08-07T06:12:52;101531.28;;;21.40;58.69
61394;BME280;48555;50.952;-0.120;2023-08-07T06:15:18;101525.38;;;21.62;57.82
61394;BME280;48555;50.952;-0.120;2023-08-07T06:17:44;101530.22;;;21.83;56.80
61394;BME280;48555;50.952;-0.120;2023-08-07T06:20:09;101528.59;;;22.07;56.23
61394;BME280;48555;50.952;-0.120;2023-08-07T06:22:36;101538.75;;;22.28;55.18
61394;BME280;48555;50.952;-0.120;2023-08-07T06:25:02;101528.59;;;22.48;54.61
61394;BME280;48555;50.952;-0.120;2023-08-07T06:27:27;101535.91;;;22.62;53.66
61394;BME280;48555;50.952;-0.120;2023-08-07T06:29:52;101548.22;;;22.71;53.52
61394;BME280;48555;50.952;-0.120;2023-08-07T06:32:18;101545.00;;;22.84;52.83
61394;BME280;48555;50.952;-0.120;2023-08-07T06:34:43;101548.66;;;22.99;52.61
61394;BME280;48555;50.952;-0.120;2023-08-07T06:37:09;101543.59;;;23.21;51.88
61394;BME280;48555;50.952;-0.120;2023-08-07T06:39:34;101541.28;;;23.41;51.20
61394;BME280;48555;50.952;-0.120;2023-08-07T06:42:00;101547.06;;;23.52;50.08
61394;BME280;48555;50.952;-0.120;2023-08-07T06:44:26;101545.16;;;23.69;49.94
61394;BME280;48555;50.952;-0.120;2023-08-07T06:46:51;101545.25;;;23.84;49.39
61394;BME280;48555;50.952;-0.120;2023-08-07T06:49:17;101548.94;;;24.06;49.24
61394;BME280;48555;50.952;-0.120;2023-08-07T06:51:42;101546.78;;;24.24;48.21
61394;BME280;48555;50.952;-0.120;2023-08-07T06:54:08;101537.44;;;24.43;48.05
61394;BME280;48555;50.952;-0.120;2023-08-07T06:56:33;101542.19;;;24.71;47.35
61394;BME280;48555;50.952;-0.120;2023-08-07T06:58:58;101546.78;;;24.92;46.81
61394;BME280;48555;50.952;-0.120;2023-08-07T07:01:24;101545.38;;;25.11;46.33
61394;BME280;48555;50.952;-0.120;2023-08-07T07:03:49;101533.88;;;25.25;45.34
61394;BME280;48555;50.952;-0.120;2023-08-07T07:06:18;101535.97;;;25.45;45.61
61394;BME280;48555;50.952;-0.120;2023-08-07T07:08:43;101530.63;;;25.66;44.51
61394;BME280;48555;50.952;-0.120;2023-08-07T07:11:08;101535.47;;;25.77;44.63
61394;BME280;48555;50.952;-0.120;2023-08-07T07:13:34;101540.75;;;25.86;44.25
61394;BME280;48555;50.952;-0.120;2023-08-07T07:15:59;101531.72;;;25.93;44.25
61394;BME280;48555;50.952;-0.120;2023-08-07T07:18:24;101532.44;;;26.02;44.28
61394;BME280;48555;50.952;-0.120;2023-08-07T07:20:57;101527.72;;;26.04;43.61
61394;BME280;48555;50.952;-0.120;2023-08-07T07:23:23;101532.09;;;26.12;43.38
61394;BME280;48555;50.952;-0.120;2023-08-07T07:25:49;101534.59;;;26.13;43.44
61394;BME280;48555;50.952;-0.120;2023-08-07T07:28:14;101534.84;;;26.18;42.90
61394;BME280;48555;50.952;-0.120;2023-08-07T07:30:39;101532.94;;;26.12;42.66
61394;BME280;48555;50.952;-0.120;2023-08-07T07:33:05;101547.78;;;26.15;43.18
61394;BME280;48555;50.952;-0.120;2023-08-07T07:35:30;101544.94;;;26.16;43.03
61394;BME280;48555;50.952;-0.120;2023-08-07T07:37:55;101529.63;;;26.10;43.58
61394;BME280;48555;50.952;-0.120;2023-08-07T07:40:21;101539.88;;;26.28;43.51
61394;BME280;48555;50.952;-0.120;2023-08-07T07:42:46;101537.03;;;26.36;43.53
61394;BME280;48555;50.952;-0.120;2023-08-07T07:45:11;101529.63;;;26.38;43.45
61394;BME280;48555;50.952;-0.120;2023-08-07T07:47:37;101530.06;;;26.42;43.28
61394;BME280;48555;50.952;-0.120;2023-08-07T07:50:07;101538.34;;;26.47;43.70
61394;BME280;48555;50.952;-0.120;2023-08-07T07:52:33;101534.28;;;26.51;43.45
61394;BME280;48555;50.952;-0.120;2023-08-07T07:54:59;101534.53;;;26.56;43.86
61394;BME280;48555;50.952;-0.120;2023-08-07T07:57:24;101520.75;;;26.59;43.92
61394;BME280;48555;50.952;-0.120;2023-08-07T07:59:49;101518.06;;;26.59;43.75
61394;BME280;48555;50.952;-0.120;2023-08-07T08:02:15;101524.44;;;26.58;43.87
61394;BME280;48555;50.952;-0.120;2023-08-07T08:04:43;101527.75;;;26.60;43.45
61394;BME280;48555;50.952;-0.120;2023-08-07T08:07:08;101519.34;;;26.42;43.91
61394;BME280;48555;50.952;-0.120;2023-08-07T08:09:34;101529.22;;;26.41;43.88
61394;BME280;48555;50.952;-0.120;2023-08-07T08:11:59;101532.50;;;26.37;44.23
61394;BME280;48555;50.952;-0.120;2023-08-07T08:14:24;101540.13;;;26.33;44.30
61394;BME280;48555;50.952;-0.120;2023-08-07T08:16:50;101542.97;;;26.32;44.54
61394;BME280;48555;50.952;-0.120;2023-08-07T08:19:15;101546.69;;;26.31;44.49
61394;BME280;48555;50.952;-0.120;2023-08-07T08:21:42;101539.63;;;26.23;44.85
61394;BME280;48555;50.952;-0.120;2023-08-07T08:24:07;101544.28;;;26.14;44.82
61394;BME280;48555;50.952;-0.120;2023-08-07T08:26:32;101540.84;;;25.99;44.78
61394;BME280;48555;50.952;-0.120;2023-08-07T08:28:58;101544.13;;;25.94;44.75
61394;BME280;48555;50.952;-0.120;2023-08-07T08:31:23;101541.63;;;25.93;45.33
61394;BME280;48555;50.952;-0.120;2023-08-07T08:33:49;101536.00;;;25.88;44.81
61394;BME280;48555;50.952;-0.120;2023-08-07T08:36:14;101547.75;;;25.87;44.60
61394;BME280;48555;50.952;-0.120;2023-08-07T08:38:40;101546.56;;;25.74;44.90
61394;BME280;48555;50.952;-0.120;2023-08-07T08:41:07;101542.97;;;25.67;45.23
61394;BME280;48555;50.952;-0.120;2023-08-07T08:43:34;101546.25;;;25.63;45.16
61394;BME280;48555;50.952;-0.120;2023-08-07T08:46:04;101533.09;;;25.68;45.22
61394;BME280;48555;50.952;-0.120;2023-08-07T08:48:30;101542.81;;;25.69;45.12
61394;BME280;48555;50.952;-0.120;2023-08-07T08:50:59;101546.88;;;25.65;45.42
61394;BME280;48555;50.952;-0.120;2023-08-07T08:53:25;101545.59;;;25.60;44.41
61394;BME280;48555;50.952;-0.120;2023-08-07T08:55:51;101538.50;;;25.53;43.06
61394;BME280;48555;50.952;-0.120;2023-08-07T08:58:17;101549.47;;;25.58;43.46
61394;BME280;48555;50.952;-0.120;2023-08-07T09:00:43;101547.81;;;25.57;43.36
61394;BME280;48555;50.952;-0.120;2023-08-07T09:03:09;101550.13;;;25.60;43.72
61394;BME280;48555;50.952;-0.120;2023-08-07T09:05:35;101544.38;;;25.63;43.46
61394;BME280;48555;50.952;-0.120;2023-08-07T09:08:02;101551.00;;;25.67;43.43
61394;BME280;48555;50.952;-0.120;2023-08-07T09:10:28;101549.25;;;25.74;43.69
61394;BME280;48555;50.952;-0.120;2023-08-07T09:13:00;101544.19;;;25.65;42.75
61394;BME280;48555;50.952;-0.120;2023-08-07T09:15:29;101539.22;;;25.61;42.84
61394;BME280;48555;50.952;-0.120;2023-08-07T09:17:55;101541.28;;;25.59;43.17
61394;BME280;48555;50.952;-0.120;2023-08-07T09:20:21;101541.50;;;25.65;43.94
61394;BME280;48555;50.952;-0.120;2023-08-07T09:22:48;101537.63;;;25.67;44.34
61394;BME280;48555;50.952;-0.120;2023-08-07T09:25:14;101546.13;;;25.71;43.85
61394;BME280;48555;50.952;-0.120;2023-08-07T09:27:39;101538.00;;;25.64;42.47
61394;BME280;48555;50.952;-0.120;2023-08-07T09:30:08;101542.91;;;25.60;43.37
61394;BME280;48555;50.952;-0.120;2023-08-07T09:32:35;101536.28;;;25.56;43.37
61394;BME280;48555;50.952;-0.120;2023-08-07T09:35:03;101539.97;;;25.55;44.00
61394;BME280;48555;50.952;-0.120;2023-08-07T09:37:29;101532.41;;;25.59;43.70
61394;BME280;48555;50.952;-0.120;2023-08-07T09:39:54;101538.66;;;25.66;44.25
61394;BME280;48555;50.952;-0.120;2023-08-07T09:42:21;101546.97;;;25.71;44.20
61394;BME280;48555;50.952;-0.120;2023-08-07T09:44:46;101547.78;;;25.72;43.89
61394;BME280;48555;50.952;-0.120;2023-08-07T09:47:15;101549.25;;;25.74;42.57
61394;BME280;48555;50.952;-0.120;2023-08-07T09:49:42;101539.16;;;25.76;42.71
61394;BME280;48555;50.952;-0.120;2023-08-07T09:52:09;101541.75;;;25.85;43.02
61394;BME280;48555;50.952;-0.120;2023-08-07T09:54:35;101541.63;;;25.93;43.88
61394;BME280;48555;50.952;-0.120;2023-08-07T09:57:01;101538.16;;;25.99;43.85
61394;BME280;48555;50.952;-0.120;2023-08-07T09:59:27;101549.59;;;26.08;43.43
61394;BME280;48555;50.952;-0.120;2023-08-07T10:01:54;101539.03;;;26.27;43.39
61394;BME280;48555;50.952;-0.120;2023-08-07T10:04:21;101542.59;;;26.35;42.70
61394;BME280;48555;50.952;-0.120;2023-08-07T10:06:46;101541.53;;;26.50;42.02
61394;BME280;48555;50.952;-0.120;2023-08-07T10:09:12;101541.53;;;26.50;41.30
61394;BME280;48555;50.952;-0.120;2023-08-07T10:11:38;101539.06;;;26.06;39.72
61394;BME280;48555;50.952;-0.120;2023-08-07T10:14:05;101539.91;;;26.07;40.33
61394;BME280;48555;50.952;-0.120;2023-08-07T10:16:30;101536.56;;;26.04;40.00
61394;BME280;48555;50.952;-0.120;2023-08-07T10:18:57;101531.22;;;26.04;40.67
61394;BME280;48555;50.952;-0.120;2023-08-07T10:21:24;101524.13;;;25.97;41.59
61394;BME280;48555;50.952;-0.120;2023-08-07T10:23:52;101530.09;;;25.92;41.85
61394;BME280;48555;50.952;-0.120;2023-08-07T10:26:19;101523.72;;;25.78;40.85
61394;BME280;48555;50.952;-0.120;2023-08-07T10:28:46;101516.47;;;25.72;41.03
61394;BME280;48555;50.952;-0.120;2023-08-07T10:31:14;101520.56;;;25.68;40.65
61394;BME280;48555;50.952;-0.120;2023-08-07T10:33:40;101515.38;;;25.67;39.76
61394;BME280;48555;50.952;-0.120;2023-08-07T10:36:10;101500.59;;;25.34;38.62
61394;BME280;48555;50.952;-0.120;2023-08-07T10:38:36;101506.41;;;25.38;39.73
61394;BME280;48555;50.952;-0.120;2023-08-07T10:41:06;101517.78;;;25.61;41.00
61394;BME280;48555;50.952;-0.120;2023-08-07T10:43:40;101521.25;;;25.77;40.91
61394;BME280;48555;50.952;-0.120;2023-08-07T10:46:07;101510.97;;;25.59;38.88
61394;BME280;48555;50.952;-0.120;2023-08-07T10:48:46;101499.09;;;25.47;39.58
61394;BME280;48555;50.952;-0.120;2023-08-07T10:51:16;101503.44;;;25.48;39.75
61394;BME280;48555;50.952;-0.120;2023-08-07T10:53:47;101499.34;;;25.52;40.32
61394;BME280;48555;50.952;-0.120;2023-08-07T10:56:35;101494.31;;;25.42;40.84
61394;BME280;48555;50.952;-0.120;2023-08-07T10:59:09;101490.34;;;25.38;40.91
61394;BME280;48555;50.952;-0.120;2023-08-07T11:04:12;101499.25;;;24.94;38.84
61394;BME280;48555;50.952;-0.120;2023-08-07T11:06:39;101500.00;;;24.88;39.53
61394;BME280;48555;50.952;-0.120;2023-08-07T11:09:06;101489.88;;;24.83;39.65
61394;BME280;48555;50.952;-0.120;2023-08-07T11:11:43;101477.31;;;24.84;40.48
61394;BME280;48555;50.952;-0.120;2023-08-07T11:14:10;101484.44;;;24.91;39.88
61394;BME280;48555;50.952;-0.120;2023-08-07T11:16:36;101473.00;;;24.83;39.88
61394;BME280;48555;50.952;-0.120;2023-08-07T11:19:03;101489.69;;;24.70;40.11
61394;BME280;48555;50.952;-0.120;2023-08-07T11:21:31;101490.06;;;24.82;40.70
61394;BME280;48555;50.952;-0.120;2023-08-07T11:23:57;101489.88;;;24.83;41.18
61394;BME280;48555;50.952;-0.120;2023-08-07T11:26:22;101490.69;;;24.99;41.81
61394;BME280;48555;50.952;-0.120;2023-08-07T11:28:50;101492.63;;;25.05;41.28
61394;BME280;48555;50.952;-0.120;2023-08-07T11:31:17;101490.59;;;25.07;41.38
61394;BME280;48555;50.952;-0.120;2023-08-07T11:33:42;101488.56;;;25.24;40.68
61394;BME280;48555;50.952;-0.120;2023-08-07T11:36:12;101479.63;;;25.38;41.12
61394;BME280;48555;50.952;-0.120;2023-08-07T11:38:42;101470.09;;;25.50;41.81
61394;BME280;48555;50.952;-0.120;2023-08-07T11:41:12;101464.59;;;25.58;41.33
61394;BME280;48555;50.952;-0.120;2023-08-07T11:43:38;101466.19;;;25.53;40.34
61394;BME280;48555;50.952;-0.120;2023-08-07T11:46:05;101471.03;;;25.43;39.53
61394;BME280;48555;50.952;-0.120;2023-08-07T11:48:33;101462.31;;;25.34;39.22
61394;BME280;48555;50.952;-0.120;2023-08-07T11:50:59;101457.41;;;25.37;39.29
61394;BME280;48555;50.952;-0.120;2023-08-07T11:53:37;101449.50;;;25.51;39.62
61394;BME280;48555;50.952;-0.120;2023-08-07T11:56:07;101441.13;;;25.60;39.88
61394;BME280;48555;50.952;-0.120;2023-08-07T11:58:36;101451.59;;;25.55;38.09
61394;BME280;48555;50.952;-0.120;2023-08-07T12:06:28;101446.38;;;25.47;37.42
61394;BME280;48555;50.952;-0.120;2023-08-07T12:08:55;101440.72;;;25.35;37.68
61394;BME280;48555;50.952;-0.120;2023-08-07T12:11:21;101447.19;;;25.26;38.57
61394;BME280;48555;50.952;-0.120;2023-08-07T12:13:47;101443.50;;;25.12;38.44
61394;BME280;48555;50.952;-0.120;2023-08-07T12:16:14;101440.56;;;25.07;38.39
61394;BME280;48555;50.952;-0.120;2023-08-07T12:18:48;101437.44;;;25.19;39.57
61394;BME280;48555;50.952;-0.120;2023-08-07T12:21:21;101433.03;;;25.32;39.73
61394;BME280;48555;50.952;-0.120;2023-08-07T12:23:49;101439.78;;;25.50;39.76
61394;BME280;48555;50.952;-0.120;2023-08-07T12:26:15;101433.94;;;25.61;39.42
61394;BME280;48555;50.952;-0.120;2023-08-07T12:28:41;101432.53;;;25.65;38.91
61394;BME280;48555;50.952;-0.120;2023-08-07T12:31:06;101430.47;;;25.67;38.77
61394;BME280;48555;50.952;-0.120;2023-08-07T12:33:34;101426.94;;;25.60;38.27
61394;BME280;48555;50.952;-0.120;2023-08-07T12:36:00;101437.97;;;25.50;39.96
61394;BME280;48555;50.952;-0.120;2023-08-07T12:38:26;101449.09;;;25.32;42.81
61394;BME280;48555;50.952;-0.120;2023-08-07T12:40:52;101431.06;;;25.05;44.56
61394;BME280;48555;50.952;-0.120;2023-08-07T12:43:17;101436.56;;;24.82;45.31
61394;BME280;48555;50.952;-0.120;2023-08-07T12:45:43;101434.84;;;24.59;46.20